createdAt,value
2022-09-22T00:01:25.940Z,67.87
2022-09-22T00:03:56.487Z,67.07
2022-09-22T00:06:36.942Z,67.17
2022-09-22T00:09:07.774Z,67.82
2022-09-22T00:11:40.179Z,68.13
2022-09-22T00:14:15.590Z,68.63
2022-09-22T00:16:52.487Z,69.34
2022-09-22T00:19:26.667Z,68.99
2022-09-22T00:21:53.821Z,69.00
2022-09-22T00:24:22.899Z,68.76
2022-09-22T00:26:51.226Z,68.73
2022-09-22T00:29:18.040Z,68.52
2022-09-22T00:31:45.754Z,68.91
2022-09-22T00:34:19.898Z,68.67
2022-09-22T00:36:46.637Z,68.37
2022-09-22T00:39:15.358Z,68.42
2022-09-22T00:41:48.717Z,68.21
2022-09-22T00:44:21.197Z,67.50
2022-09-22T00:46:58.775Z,67.04
2022-09-22T00:49:52.116Z,67.75
2022-09-22T00:52:32.034Z,68.60
2022-09-22T00:55:05.204Z,69.27
2022-09-22T00:57:37.027Z,69.87
2022-09-22T01:00:08.288Z,70.50
2022-09-22T01:02:35.246Z,70.53
2022-09-22T01:05:01.731Z,70.77
2022-09-22T01:07:30.999Z,70.26
2022-09-22T01:09:59.749Z,70.26
2022-09-22T01:12:30.820Z,69.95
2022-09-22T01:15:40.771Z,70.12
2022-09-22T01:18:24.824Z,70.04
2022-09-22T01:21:24.655Z,70.95
2022-09-22T01:24:32.155Z,71.09
2022-09-22T01:27:46.722Z,71.25
2022-09-22T01:30:19.689Z,70.51
2022-09-22T01:32:59.097Z,70.79
2022-09-22T01:35:52.697Z,70.85
2022-09-22T01:38:54.131Z,70.32
2022-09-22T01:41:39.656Z,70.31
2022-09-22T01:44:49.092Z,70.46
2022-09-22T01:47:35.695Z,70.47
2022-09-22T01:50:13.880Z,70.31
2022-09-22T01:52:45.145Z,70.44
2022-09-22T01:55:22.865Z,69.70
2022-09-22T01:58:00.961Z,68.90
2022-09-22T02:00:27.764Z,68.85
2022-09-22T02:03:05.096Z,68.20
2022-09-22T02:06:23.291Z,68.00
2022-09-22T02:09:12.033Z,68.09
2022-09-22T02:11:38.803Z,68.05
2022-09-22T02:14:06.975Z,67.64
2022-09-22T02:16:34.846Z,67.88
2022-09-22T02:19:21.546Z,67.31
2022-09-22T02:21:48.942Z,67.07
2022-09-22T02:24:37.868Z,66.68
2022-09-22T02:27:36.416Z,67.93
2022-09-22T02:30:11.914Z,68.81
2022-09-22T02:32:48.573Z,68.85
2022-09-22T02:35:15.958Z,70.05
2022-09-22T02:37:55.290Z,70.95
2022-09-22T02:40:44.494Z,69.78
2022-09-22T02:43:27.344Z,69.65
2022-09-22T02:46:06.445Z,69.53
2022-09-22T02:48:41.390Z,69.39
2022-09-22T02:51:09.496Z,69.87
2022-09-22T02:53:36.534Z,69.96
2022-09-22T02:56:04.529Z,69.87
2022-09-22T02:58:31.236Z,70.14
2022-09-22T03:00:58.058Z,69.56
2022-09-22T03:03:33.343Z,69.48
2022-09-22T03:05:59.806Z,68.72
2022-09-22T03:08:26.267Z,68.57
2022-09-22T03:10:52.692Z,68.08
2022-09-22T03:13:19.208Z,68.75
2022-09-22T03:15:46.928Z,69.28
2022-09-22T03:18:13.971Z,69.39
2022-09-22T03:20:40.920Z,69.71
2022-09-22T03:23:07.588Z,69.58
2022-09-22T03:25:34.155Z,69.81
2022-09-22T03:28:00.993Z,69.48
2022-09-22T03:30:27.550Z,69.59
2022-09-22T03:32:54.062Z,69.52
2022-09-22T03:35:20.561Z,69.53
2022-09-22T03:37:47.075Z,69.80
2022-09-22T03:40:13.966Z,69.54
2022-09-22T03:42:40.477Z,69.42
2022-09-22T03:45:07.627Z,69.49
2022-09-22T03:47:34.060Z,69.20
2022-09-22T03:50:02.783Z,68.86
2022-09-22T03:52:29.226Z,68.88
2022-09-22T03:54:55.681Z,68.53
2022-09-22T03:57:22.378Z,68.76
2022-09-22T03:59:48.977Z,68.76
2022-09-22T04:02:15.515Z,68.81
2022-09-22T04:04:42.391Z,68.50
2022-09-22T04:07:08.850Z,68.67
2022-09-22T04:09:35.615Z,68.60
2022-09-22T04:12:02.740Z,68.55
2022-09-22T04:14:29.375Z,68.17
2022-09-22T04:16:56.598Z,68.15
2022-09-22T04:19:26.127Z,68.22
2022-09-22T04:21:56.977Z,68.23
2022-09-22T04:24:24.407Z,68.57
2022-09-22T04:27:15.263Z,68.93
2022-09-22T04:29:37.673Z,69.97
2022-09-22T04:32:04.331Z,70.34
2022-09-22T04:34:30.790Z,70.37
2022-09-22T04:36:57.224Z,70.21
2022-09-22T04:39:24.123Z,70.11
2022-09-22T04:41:50.917Z,70.24
2022-09-22T04:44:17.361Z,70.62
2022-09-22T04:46:45.989Z,70.36
2022-09-22T04:49:15.519Z,69.88
2022-09-22T04:51:42.087Z,69.85
2022-09-22T04:54:08.513Z,70.10
2022-09-22T04:56:34.976Z,70.10
2022-09-22T04:59:02.122Z,70.06
2022-09-22T05:01:28.692Z,69.63
2022-09-22T05:03:55.168Z,69.74
2022-09-22T05:06:21.626Z,69.40
2022-09-22T05:08:48.050Z,69.71
2022-09-22T05:11:14.482Z,69.80
2022-09-22T05:13:41.087Z,69.80
2022-09-22T05:16:08.771Z,69.64
2022-09-22T05:18:35.696Z,69.48
2022-09-22T05:21:02.554Z,70.01
2022-09-22T05:23:29.198Z,70.10
2022-09-22T05:25:59.362Z,70.27
2022-09-22T05:28:25.818Z,69.96
2022-09-22T05:30:52.892Z,69.57
2022-09-22T05:33:19.316Z,70.00
2022-09-22T05:35:45.997Z,70.14
2022-09-22T05:38:12.505Z,70.18
2022-09-22T05:40:39.069Z,70.22
2022-09-22T05:43:05.596Z,70.10
2022-09-22T05:45:32.109Z,69.78
2022-09-22T05:47:58.583Z,69.97
2022-09-22T05:50:25.087Z,69.63
2022-09-22T05:52:51.767Z,69.37
2022-09-22T05:55:18.561Z,68.66
2022-09-22T05:57:45.069Z,68.11
2022-09-22T06:00:12.429Z,67.60
2022-09-22T06:02:39.566Z,67.58
2022-09-22T06:05:06.777Z,67.58
2022-09-22T06:07:33.545Z,67.76
2022-09-22T06:10:00.021Z,67.49
2022-09-22T06:12:29.466Z,67.88
2022-09-22T06:14:56.588Z,68.07
2022-09-22T06:17:26.180Z,68.29
2022-09-22T06:19:52.660Z,68.89
2022-09-22T06:22:19.128Z,68.84
2022-09-22T06:24:45.638Z,68.31
2022-09-22T06:27:12.320Z,68.50
2022-09-22T06:29:38.827Z,68.36
2022-09-22T06:32:08.478Z,68.29
2022-09-22T06:34:36.888Z,68.68
2022-09-22T06:37:07.817Z,69.42
2022-09-22T06:39:37.358Z,69.33
2022-09-22T06:42:05.325Z,69.13
2022-09-22T06:44:32.185Z,69.07
2022-09-22T06:46:58.971Z,68.97
2022-09-22T06:49:26.163Z,69.62
2022-09-22T06:51:52.692Z,70.24
2022-09-22T06:54:21.397Z,70.84
2022-09-22T06:56:49.463Z,71.17
2022-09-22T06:59:16.688Z,71.22
2022-09-22T07:01:45.292Z,71.18
2022-09-22T07:04:13.385Z,71.22
2022-09-22T07:06:40.515Z,71.34
2022-09-22T07:09:09.208Z,71.53
2022-09-22T07:11:39.777Z,71.61
2022-09-22T07:14:07.488Z,71.70
2022-09-22T07:16:35.175Z,72.05
2022-09-22T07:19:01.660Z,71.53
2022-09-22T07:21:34.884Z,71.36
2022-09-22T07:24:01.890Z,71.47
2022-09-22T07:26:32.794Z,71.17
2022-09-22T07:29:03.311Z,71.18
2022-09-22T07:31:32.006Z,70.90
2022-09-22T07:34:01.558Z,71.02
2022-09-22T07:36:31.565Z,70.26
2022-09-22T07:39:07.705Z,69.94
2022-09-22T07:41:44.392Z,71.03
2022-09-22T07:44:31.231Z,73.48
2022-09-22T07:46:58.408Z,71.67
2022-09-22T07:49:24.926Z,70.53
2022-09-22T07:51:54.770Z,69.83
2022-09-22T07:54:22.624Z,69.94
2022-09-22T07:56:58.017Z,69.76
2022-09-22T07:59:25.629Z,70.94
2022-09-22T08:01:52.787Z,69.74
2022-09-22T08:04:22.764Z,70.38
2022-09-22T08:06:55.133Z,70.58
2022-09-22T08:09:22.823Z,71.18
2022-09-22T08:11:50.025Z,70.52
2022-09-22T08:14:18.126Z,70.24
2022-09-22T08:16:45.910Z,70.62
2022-09-22T08:19:13.479Z,70.95
2022-09-22T08:21:48.938Z,70.36
2022-09-22T08:24:22.327Z,70.61
2022-09-22T08:26:52.370Z,70.69
2022-09-22T08:29:19.317Z,70.38
2022-09-22T08:31:47.296Z,70.43
2022-09-22T08:34:16.532Z,70.50
2022-09-22T08:36:48.281Z,69.97
2022-09-22T08:39:17.704Z,70.19
2022-09-22T08:42:10.140Z,70.29
2022-09-22T08:45:01.750Z,70.56
2022-09-22T08:47:59.956Z,71.13
2022-09-22T08:50:55.661Z,70.75
2022-09-22T08:53:23.263Z,70.96
2022-09-22T08:56:06.918Z,70.24
2022-09-22T08:58:56.394Z,70.06
2022-09-22T09:01:57.258Z,69.92
2022-09-22T09:04:51.263Z,69.49
2022-09-22T09:08:04.139Z,69.63
2022-09-22T09:11:14.612Z,69.15
2022-09-22T09:14:08.920Z,69.12
2022-09-22T09:17:03.614Z,68.60
2022-09-22T09:19:45.966Z,68.59
2022-09-22T09:22:27.041Z,68.19
2022-09-22T09:25:25.014Z,68.20
2022-09-22T09:27:59.890Z,67.39
2022-09-22T09:30:26.785Z,67.45
2022-09-22T09:33:14.254Z,67.40
2022-09-22T09:35:51.918Z,66.88
2022-09-22T09:38:38.315Z,66.30
2022-09-22T09:41:22.210Z,67.06
2022-09-22T09:43:53.233Z,66.68
2022-09-22T09:47:19.365Z,65.93
2022-09-22T09:49:52.788Z,65.92
2022-09-22T09:52:21.069Z,65.70
2022-09-22T09:54:48.524Z,66.46
2022-09-22T09:57:20.710Z,66.00
2022-09-22T10:00:27.575Z,66.35
2022-09-22T10:03:29.927Z,66.08
2022-09-22T10:06:06.313Z,66.11
2022-09-22T10:08:45.481Z,65.78
2022-09-22T10:11:15.045Z,65.78
2022-09-22T10:13:43.825Z,64.97
2022-09-22T10:16:51.660Z,64.80
2022-09-22T10:19:30.701Z,64.30
2022-09-22T10:22:27.430Z,62.73
2022-09-22T10:25:03.129Z,62.39
2022-09-22T10:27:31.786Z,61.98
2022-09-22T10:30:21.295Z,61.77
2022-09-22T10:33:20.299Z,61.75
2022-09-22T10:36:12.419Z,60.20
2022-09-22T10:38:43.083Z,61.36
2022-09-22T10:41:17.761Z,61.08
2022-09-22T10:43:52.187Z,60.75
2022-09-22T10:46:55.477Z,60.03
2022-09-22T10:49:40.086Z,60.13
2022-09-22T10:52:30.675Z,59.68
2022-09-22T10:55:30.599Z,58.82
2022-09-22T10:58:08.780Z,58.24
2022-09-22T11:00:39.482Z,57.82
2022-09-22T11:03:48.676Z,56.42
2022-09-22T11:07:12.850Z,55.64
2022-09-22T11:10:20.455Z,55.75
2022-09-22T11:14:03.226Z,55.72
2022-09-22T11:16:48.358Z,56.10
2022-09-22T11:19:35.782Z,55.65
2022-09-22T11:22:30.378Z,55.17
2022-09-22T11:25:50.793Z,54.67
2022-09-22T11:28:57.455Z,54.43
2022-09-22T11:31:45.534Z,52.45
2022-09-22T11:34:39.512Z,51.81
2022-09-22T11:38:02.417Z,49.69
2022-09-22T11:41:16.061Z,53.05
2022-09-22T11:44:11.940Z,52.29
2022-09-22T11:47:31.310Z,52.34
2022-09-22T11:50:16.551Z,51.47
2022-09-22T11:53:24.327Z,50.14
2022-09-22T11:56:34.574Z,50.10
2022-09-22T11:59:28.422Z,49.46
2022-09-22T12:02:04.549Z,50.44
2022-09-22T12:04:46.515Z,49.91
2022-09-22T12:07:44.747Z,49.14
2022-09-22T12:10:30.115Z,49.46
2022-09-22T12:12:57.047Z,49.42
2022-09-22T12:15:38.215Z,49.08
2022-09-22T12:18:20.074Z,49.76
2022-09-22T12:21:01.917Z,48.62
2022-09-22T12:23:47.583Z,49.33
2022-09-22T12:26:31.501Z,48.74
2022-09-22T12:29:01.891Z,48.20
2022-09-22T12:31:38.002Z,46.38
2022-09-22T12:34:18.314Z,47.37
2022-09-22T12:36:46.345Z,47.69
2022-09-22T12:39:23.829Z,47.19
2022-09-22T12:41:59.198Z,47.86
2022-09-22T12:44:31.897Z,48.35
2022-09-22T12:47:23.365Z,48.65
2022-09-22T12:50:04.249Z,49.02
2022-09-22T12:53:02.302Z,48.46
2022-09-22T12:55:28.674Z,49.29
2022-09-22T12:58:01.048Z,48.57
2022-09-22T13:00:41.065Z,48.40
2022-09-22T13:03:25.965Z,48.28
2022-09-22T13:06:22.596Z,49.56
2022-09-22T13:08:54.788Z,49.70
2022-09-22T13:12:11.932Z,49.85
2022-09-22T13:15:14.970Z,49.18
2022-09-22T13:17:45.688Z,48.80
2022-09-22T13:20:45.951Z,48.23
2022-09-22T13:23:13.946Z,47.82
2022-09-22T13:25:44.181Z,47.51
2022-09-22T13:28:16.843Z,47.41
2022-09-22T13:30:46.461Z,47.21
2022-09-22T13:33:24.462Z,46.86
2022-09-22T13:35:57.783Z,47.43
2022-09-22T13:38:24.787Z,47.82
2022-09-22T13:40:52.618Z,47.33
2022-09-22T13:43:33.542Z,46.45
2022-09-22T13:46:03.551Z,47.29
2022-09-22T13:48:37.503Z,46.62
2022-09-22T13:51:11.601Z,46.88
2022-09-22T13:53:49.250Z,46.63
2022-09-22T13:56:22.010Z,46.53
2022-09-22T13:58:51.619Z,46.36
2022-09-22T14:01:27.455Z,46.95
2022-09-22T14:03:55.555Z,46.75
2022-09-22T14:06:28.716Z,46.30
2022-09-22T14:08:56.990Z,45.72
2022-09-22T14:11:28.057Z,45.36
2022-09-22T14:13:54.811Z,46.14
2022-09-22T14:16:50.902Z,44.95
2022-09-22T14:19:33.900Z,45.75
2022-09-22T14:22:13.580Z,45.92
2022-09-22T14:24:48.573Z,44.95
2022-09-22T14:27:27.697Z,44.61
2022-09-22T14:29:56.079Z,45.13
2022-09-22T14:32:39.618Z,43.45
2022-09-22T14:35:16.566Z,45.97
2022-09-22T14:37:49.362Z,45.45
2022-09-22T14:40:22.402Z,45.96
2022-09-22T14:43:08.731Z,46.08
2022-09-22T14:45:57.773Z,45.27
2022-09-22T14:48:38.855Z,45.54
2022-09-22T14:51:25.351Z,43.28
2022-09-22T14:53:58.595Z,43.86
2022-09-22T14:56:29.335Z,43.66
2022-09-22T14:59:02.548Z,44.56
2022-09-22T15:01:50.918Z,44.33
2022-09-22T15:04:41.675Z,42.76
2022-09-22T15:07:25.776Z,44.26
2022-09-22T15:10:00.379Z,44.28
2022-09-22T15:12:47.347Z,44.35
2022-09-22T15:15:29.000Z,44.56
2022-09-22T15:18:19.029Z,44.67
2022-09-22T15:20:47.097Z,45.08
2022-09-22T15:23:18.162Z,45.49
2022-09-22T15:25:46.403Z,45.67
2022-09-22T15:28:18.559Z,45.09
2022-09-22T15:30:47.744Z,45.21
2022-09-22T15:33:15.962Z,44.99
2022-09-22T15:35:46.338Z,44.93
2022-09-22T15:38:27.371Z,45.11
2022-09-22T15:40:54.352Z,45.00
2022-09-22T15:43:23.296Z,44.97
2022-09-22T15:45:56.591Z,45.65
2022-09-22T15:48:30.341Z,45.65
2022-09-22T15:51:00.685Z,45.74
2022-09-22T15:53:27.323Z,46.63
2022-09-22T15:55:54.574Z,46.04
2022-09-22T15:58:23.155Z,46.12
2022-09-22T16:00:55.364Z,46.78
2022-09-22T16:03:23.957Z,47.30
2022-09-22T16:06:02.051Z,47.86
2022-09-22T16:08:35.587Z,48.20
2022-09-22T16:11:05.448Z,48.93
2022-09-22T16:13:33.282Z,49.78
2022-09-22T16:16:03.251Z,50.27
2022-09-22T16:18:36.157Z,50.91
2022-09-22T16:21:14.407Z,50.91
2022-09-22T16:23:40.835Z,51.23
2022-09-22T16:26:07.279Z,51.52
2022-09-22T16:28:33.723Z,51.55
2022-09-22T16:31:04.307Z,51.43
2022-09-22T16:33:31.545Z,51.09
2022-09-22T16:35:58.388Z,51.07
2022-09-22T16:38:24.950Z,51.13
2022-09-22T16:41:07.823Z,50.43
2022-09-22T16:43:34.301Z,51.41
2022-09-22T16:46:19.661Z,51.60
2022-09-22T16:48:46.296Z,52.16
2022-09-22T16:51:15.571Z,52.70
2022-09-22T16:53:42.488Z,52.85
2022-09-22T16:56:08.922Z,53.11
2022-09-22T16:58:35.367Z,52.93
2022-09-22T17:01:04.563Z,53.42
2022-09-22T17:03:34.047Z,54.18
2022-09-22T17:06:06.519Z,54.62
2022-09-22T17:08:34.057Z,54.93
2022-09-22T17:11:00.730Z,55.15
2022-09-22T17:13:31.214Z,55.55
2022-09-22T17:16:20.828Z,56.19
2022-09-22T17:18:50.146Z,56.93
2022-09-22T17:21:21.076Z,57.17
2022-09-22T17:23:50.338Z,56.97
2022-09-22T17:26:18.923Z,56.81
2022-09-22T17:28:46.499Z,57.18
2022-09-22T17:31:13.702Z,57.58
2022-09-22T17:33:47.804Z,57.14
2022-09-22T17:36:20.305Z,56.87
2022-09-22T17:38:50.669Z,56.60
2022-09-22T17:41:26.158Z,56.79
2022-09-22T17:43:58.428Z,57.36
2022-09-22T17:46:28.796Z,57.68
2022-09-22T17:49:14.214Z,57.94
2022-09-22T17:52:10.154Z,58.47
2022-09-22T17:55:00.131Z,59.45
2022-09-22T17:57:32.101Z,60.03
2022-09-22T17:59:59.270Z,60.33
2022-09-22T18:02:32.133Z,60.19
2022-09-22T18:04:58.864Z,60.79
2022-09-22T18:07:27.001Z,61.09
2022-09-22T18:09:55.845Z,60.35
2022-09-22T18:12:25.010Z,60.65
2022-09-22T18:14:55.335Z,60.89
2022-09-22T18:17:26.516Z,61.55
2022-09-22T18:19:58.700Z,61.27
2022-09-22T18:22:28.469Z,61.67
2022-09-22T18:24:56.095Z,62.13
2022-09-22T18:27:29.739Z,61.97
2022-09-22T18:29:59.455Z,62.07
2022-09-22T18:32:27.747Z,62.31
2022-09-22T18:34:55.375Z,62.03
2022-09-22T18:37:25.017Z,61.97
2022-09-22T18:39:51.618Z,62.64
2022-09-22T18:42:22.608Z,62.89
2022-09-22T18:44:49.053Z,63.05
2022-09-22T18:47:18.902Z,63.11
2022-09-22T18:49:48.781Z,63.47
2022-09-22T18:52:22.834Z,63.74
2022-09-22T18:54:51.670Z,63.77
2022-09-22T18:57:18.192Z,64.46
2022-09-22T18:59:44.647Z,64.30
2022-09-22T19:02:12.274Z,63.95
2022-09-22T19:04:39.159Z,64.01
2022-09-22T19:07:24.367Z,64.09
2022-09-22T19:09:52.371Z,64.43
2022-09-22T19:12:20.280Z,64.67
2022-09-22T19:14:48.023Z,64.22
2022-09-22T19:17:17.123Z,63.89
2022-09-22T19:19:48.758Z,64.28
2022-09-22T19:22:16.742Z,64.42
2022-09-22T19:24:45.951Z,65.07
2022-09-22T19:27:16.302Z,65.15
2022-09-22T19:29:42.787Z,65.56
2022-09-22T19:32:10.109Z,65.64
2022-09-22T19:34:36.577Z,65.36
2022-09-22T19:37:03.663Z,65.47
2022-09-22T19:39:32.014Z,65.95
2022-09-22T19:41:59.424Z,65.73
2022-09-22T19:44:27.038Z,65.82
2022-09-22T19:46:53.487Z,65.69
2022-09-22T19:49:19.986Z,65.72
2022-09-22T19:51:46.476Z,65.71
2022-09-22T19:54:13.007Z,66.44
2022-09-22T19:56:39.801Z,66.08
2022-09-22T19:59:09.601Z,66.00
2022-09-22T20:01:41.035Z,66.00
2022-09-22T20:04:19.062Z,65.87
2022-09-22T20:06:48.923Z,65.82
2022-09-22T20:09:16.826Z,66.43
2022-09-22T20:11:49.764Z,65.91
2022-09-22T20:14:22.476Z,66.65
2022-09-22T20:17:09.382Z,67.34
2022-09-22T20:19:38.366Z,67.02
2022-09-22T20:22:27.499Z,67.48
2022-09-22T20:25:01.283Z,66.86
2022-09-22T20:27:31.511Z,66.88
2022-09-22T20:29:59.824Z,66.96
2022-09-22T20:32:31.404Z,67.17
2022-09-22T20:34:57.879Z,67.81
2022-09-22T20:37:24.894Z,67.23
2022-09-22T20:39:51.947Z,67.40
2022-09-22T20:42:18.424Z,67.42
2022-09-22T20:44:45.140Z,66.79
2022-09-22T20:47:24.314Z,66.36
2022-09-22T20:49:52.099Z,66.85
2022-09-22T20:52:20.511Z,67.17
2022-09-22T20:54:48.714Z,67.33
2022-09-22T20:57:16.012Z,67.86
2022-09-22T20:59:46.233Z,67.33
2022-09-22T21:02:14.773Z,67.25
2022-09-22T21:04:41.697Z,67.48
2022-09-22T21:07:11.108Z,67.45
2022-09-22T21:09:56.196Z,68.35
2022-09-22T21:12:27.343Z,68.18
2022-09-22T21:14:57.390Z,68.31
2022-09-22T21:17:24.204Z,67.66
2022-09-22T21:19:50.782Z,67.45
2022-09-22T21:22:17.256Z,67.20
2022-09-22T21:24:52.510Z,67.12
2022-09-22T21:27:20.361Z,67.55
2022-09-22T21:29:46.924Z,67.33
2022-09-22T21:32:13.435Z,67.27
2022-09-22T21:34:41.755Z,67.45
2022-09-22T21:37:11.250Z,67.41
2022-09-22T21:39:37.750Z,68.11
2022-09-22T21:42:04.291Z,67.46
2022-09-22T21:44:30.763Z,68.40
2022-09-22T21:46:57.238Z,68.07
2022-09-22T21:49:24.191Z,68.38
2022-09-22T21:51:50.711Z,68.05
2022-09-22T21:54:18.870Z,68.21
2022-09-22T21:56:46.233Z,68.53
2022-09-22T21:59:13.367Z,68.21
2022-09-22T22:01:42.229Z,67.59
2022-09-22T22:04:10.110Z,67.79
2022-09-22T22:06:45.571Z,67.91
2022-09-22T22:09:20.307Z,68.03
2022-09-22T22:11:59.201Z,67.67
2022-09-22T22:14:32.697Z,67.57
2022-09-22T22:17:01.999Z,66.97
2022-09-22T22:19:29.774Z,67.14
2022-09-22T22:21:56.274Z,67.72
2022-09-22T22:24:24.675Z,67.36
2022-09-22T22:27:02.316Z,67.64
2022-09-22T22:29:34.633Z,68.14
2022-09-22T22:32:02.570Z,67.85
2022-09-22T22:34:29.123Z,67.79
2022-09-22T22:36:58.115Z,67.92
2022-09-22T22:39:24.700Z,68.49
2022-09-22T22:41:54.385Z,67.84
2022-09-22T22:44:21.720Z,68.34
2022-09-22T22:46:48.388Z,67.56
2022-09-22T22:49:15.086Z,67.99
2022-09-22T22:51:45.852Z,67.86
2022-09-22T22:54:14.259Z,68.83
2022-09-22T22:56:42.809Z,68.73
2022-09-22T22:59:11.023Z,68.72
2022-09-22T23:01:37.728Z,68.96
2022-09-22T23:04:07.774Z,68.56
2022-09-22T23:06:43.642Z,68.08
2022-09-22T23:09:14.746Z,68.05
2022-09-22T23:11:42.378Z,68.61
2022-09-22T23:14:12.009Z,68.40
2022-09-22T23:16:44.821Z,68.22
2022-09-22T23:19:17.755Z,68.39
2022-09-22T23:21:45.407Z,68.54
2022-09-22T23:24:18.900Z,68.69
2022-09-22T23:26:49.736Z,68.33
2022-09-22T23:29:16.199Z,69.18
2022-09-22T23:31:42.680Z,68.92
2022-09-22T23:34:09.129Z,69.59
2022-09-22T23:36:35.640Z,69.32
2022-09-22T23:39:05.273Z,69.05
2022-09-22T23:41:34.847Z,69.17
2022-09-22T23:44:02.732Z,69.53
2022-09-22T23:46:29.297Z,68.97
2022-09-22T23:48:55.906Z,69.01
2022-09-22T23:51:22.911Z,69.17
2022-09-22T23:53:49.407Z,69.38
2022-09-22T23:56:15.843Z,68.90
2022-09-22T23:58:42.292Z,68.72
